• Join FlightAware (Why Join?)
  • Login
  • US Flag 
01:43PM EDT


 

Airport Tracker/Info


-or-


 

Live Flight TrackerFlight Track Log ✈ PDT4226 ✈ 12-Oct-2013 ✈ KBGM - KPHL

Flight Track Log - Related Links

Times and Time Zones

All times are in EDT time to prevent confusion due to time zone crossing. See the PDT4226 flight status page for this flight to view local times or setup timezone preferences in your user account.

Time Position Orientation Groundspeed Altitude Reporting Facility
EDT Latitude Longitude Course Direction KTS MPH feet Rate Location/Type
01:50PM 41.9924 -75.9090 180° South  Level Estimated
01:51PM 41.9384 -75.8914 154° Southeast  Level Estimated
01:52PM 41.8843 -75.8738 160° South  Level Estimated
01:53PM 41.8288 -75.8723 179° South  Level FlightAware Approximate
01:54PM 41.7748 -75.8543 159° South  Level Estimated
01:55PM 41.7198 -75.8434 172° South  Level FlightAware Approximate
01:56PM 41.6659 -75.8253 153° Southeast  Level Estimated
01:57PM 41.6120 -75.8073 161° South  Level Estimated
01:58PM 41.5583 -75.7879 165° South  Level FlightAware Approximate
01:59PM 41.5047 -75.7686 165° South  Level FlightAware Approximate
02:00PM 41.4510 -75.7493 165° South  Level FlightAware Approximate
02:01PM 41.3970 -75.7315 162° South  Level Estimated
02:02PM 41.3440 -75.7094 163° South  Level FlightAware Approximate
02:03PM 41.2910 -75.6873 163° South  Level FlightAware Approximate
02:04PM 41.2379 -75.6652 163° South  Level FlightAware Approximate
02:05PM 41.1849 -75.6432 163° South  Level FlightAware Approximate
02:06PM 41.1308 -75.6263 163° South  Level Estimated
02:07PM 41.0779 -75.6036 162° South  Level FlightAware Approximate
02:08PM 41.0250 -75.5810 162° South  Level FlightAware Approximate
02:09PM 40.9720 -75.5584 162° South  Level FlightAware Approximate
02:10PM 40.9191 -75.5359 162° South  Level FlightAware Approximate
02:11PM 40.8648 -75.5203 190° South  Level Estimated
02:12PM 40.8093 -75.5172 178° South  Level FlightAware Approximate
02:13PM 40.7537 -75.5141 178° South  Level FlightAware Approximate
02:14PM 40.6982 -75.5110 178° South  Level FlightAware Approximate
02:14PM 40.5833 -75.4833 191° South 257 296 6,800  Level Philadelphia TRACON
02:15PM 40.6443 -75.4932 187° South  Level Estimated
02:15PM 40.5000 -75.5000 189° South 258 297 5,800  Level Philadelphia TRACON
02:16PM 40.5889 -75.4985 184° South  Level FlightAware Approximate
02:16PM 40.4333 -75.5000 180° South 250 288 5,100  Level Philadelphia TRACON
02:17PM 40.5353 -75.4791 190° South  Level Estimated
02:17PM 40.3833 -75.4833 166° South 235 270 5,000  Level Philadelphia TRACON
02:18PM 40.4807 -75.4927 191° South  Level FlightAware Approximate
02:18PM 40.3000 -75.5000 189° South 232 267 5,000  Level Philadelphia TRACON
02:19PM 40.4261 -75.5063 191° South  Level FlightAware Approximate
02:19PM 40.2500 -75.5333 207° Southwest 232 267 5,000  Level Philadelphia TRACON
02:20PM 40.1833 -75.5167 169° South 223 257 4,900 -480 Descending Philadelphia TRACON
02:21PM 40.1333 -75.4833 153° Southeast 234 269 4,200 -480 Descending Philadelphia TRACON
02:22PM 40.0667 -75.4500 159° South 228 262 4,000 -120 Descending Philadelphia TRACON
02:23PM 40.0167 -75.4167 153° Southeast 215 247 4,000  Level Philadelphia TRACON
02:24PM 39.9667 -75.4000 166° South 216 249 4,000  Level Philadelphia TRACON
02:25PM 39.9000 -75.3667 159° South 190 219 4,000  Level Philadelphia TRACON
02:26PM 39.8667 -75.3333 142° Southeast 173 199 4,000 -360 Level Philadelphia TRACON
02:27PM 39.8167 -75.3167 166° South 176 203 3,400 -900 Descending Philadelphia TRACON
02:28PM 39.7833 -75.2833 142° Southeast 176 203 2,200 -720 Descending Philadelphia TRACON
02:29PM 39.7500 -75.2500 142° Southeast 163 188 2,000 -180 Descending Philadelphia TRACON
02:30PM 39.7833 -75.2000 49° Northeast 178 205 1,900 -480 Descending Philadelphia TRACON
02:31PM 39.8333 -75.2000 360° North 151 174 1,100 -840 Descending Philadelphia TRACON
02:32PM 39.8667 -75.2167 339° North 123 142 300 -840 Descending Philadelphia TRACON